Date,TemperatureHighF,TemperatureAvgF,TemperatureLowF,DewpointHighF,DewpointAvgF,DewpointLowF,HumidityHigh,HumidityAvg,HumidityLow,PressureMaxIn,PressureMinIn,WindSpeedMaxMPH,WindSpeedAvgMPH,GustSpeedMaxMPH,PrecipitationSumIn
2013-10-1,76,68,62,64,61,58,100,80,59,30.16,30.06,13,2,13,0.01
2013-10-2,80,71,65,72,67,62,99,87,73,30.17,30.08,15,3,15,0.01
2013-10-3,80,73,68,75,71,68,100,94,78,30.19,30.13,14,2,14,0.01
2013-10-4,81,74,69,74,72,69,100,92,76,30.19,30.11,11,1,11,0.00
2013-10-5,81,75,70,75,72,70,100,93,73,30.17,30.10,11,1,11,0.00
2013-10-6,81,76,71,76,74,71,100,94,78,30.12,30.01,14,3,14,0.01
2013-10-7,82,78,75,78,76,75,100,95,83,30.02,29.90,19,6,19,0.01
2013-10-8,76,68,65,76,68,65,100,100,100,30.09,29.93,28,14,31,1.20
2013-10-9,67,65,63,67,65,63,100,100,100,30.08,29.88,33,17,33,1.24
2013-10-10,64,64,63,64,64,63,100,100,100,29.89,29.85,27,16,27,0.00
2013-10-14,70,69,67,70,69,67,100,100,98,30.16,30.09,17,13,28,0.00
2013-10-15,69,67,65,69,67,65,100,100,100,30.12,30.01,14,10,21,0.00
2013-10-16,71,69,67,71,69,67,100,100,100,30.03,29.97,10,6,16,0.00
2013-10-17,74,69,65,71,68,65,100,97,86,30.01,29.91,10,4,17,0.00
2013-10-18,74,71,69,72,70,69,100,97,86,30.03,29.91,9,4,15,0.01
2013-10-19,74,71,68,74,71,68,100,100,100,29.99,29.88,7,2,12,0.22
2013-10-20,72,64,61,72,60,58,100,90,83,30.13,29.90,15,6,21,0.01
2013-10-21,67,62,58,63,58,54,97,87,73,30.18,30.02,15,5,15,0.00
2013-10-22,66,63,60,63,59,55,97,87,79,30.03,29.90,15,3,15,0.01
2013-10-24,59,53,46,50,44,41,88,72,54,30.21,29.97,13,7,20,0.00
2013-10-25,56,52,49,46,41,37,83,67,50,30.39,30.20,14,9,25,0.00
2013-10-26,61,52,45,50,44,40,83,73,63,30.39,30.15,8,5,13,0.00
2013-10-27,65,58,53,54,47,43,89,70,56,30.19,30.10,10,4,15,0.00
2013-10-28,66,60,55,58,55,52,95,85,65,30.30,30.19,2,0,7,0.00
2013-10-29,70,62,57,60,56,52,90,81,68,30.36,30.27,5,2,10,0.00
2013-10-30,71,65,59,63,60,58,100,84,66,30.35,30.23,5,1,10,0.00
2013-10-31,70,66,61,69,66,61,100,99,92,30.27,30.05,24,3,24,0.02